Time;durP1;ratioP1;P1;durP2;ratioP2;P2;SDS_P1;SDS_P2;PMS_P1;PMS_P2;Temp;Humidity;BMP_temperature;BMP_pressure;BME280_temperature;BME280_humidity;BME280_pressure;Samples;Min_cycle;Max_cycle;Signal;HPM_P1;HPM_P2
2023/07/28 00:02:22;;;;;;;0.00;0.00;;;19.80;85.70;;;;;;4985749;28;20109;-78
2023/07/28 00:04:47;;;;;;;0.00;0.00;;;19.70;86.70;;;;;;4986156;28;20082;-79
2023/07/28 00:07:13;;;;;;;0.00;0.00;;;19.60;87.30;;;;;;4985640;28;20023;-78
2023/07/28 00:09:39;;;;;;;0.00;0.00;;;19.50;87.60;;;;;;4986053;28;20023;-79
2023/07/28 00:12:05;;;;;;;0.10;0.10;;;19.50;87.70;;;;;;4985143;28;20764;-79
2023/07/28 00:14:30;;;;;;;0.00;0.00;;;19.50;88.20;;;;;;4985493;28;20049;-79
2023/07/28 00:16:57;;;;;;;0.53;0.53;;;19.50;88.30;;;;;;4985289;28;20030;-78
2023/07/28 00:19:23;;;;;;;0.05;0.05;;;19.50;88.30;;;;;;4985750;28;20502;-78
2023/07/28 00:21:50;;;;;;;0.00;0.00;;;19.40;88.60;;;;;;4985035;28;20053;-78
2023/07/28 00:24:16;;;;;;;;;;;19.50;88.50;;;;;;4982159;28;20034;-78
2023/07/28 00:26:41;;;;;;;0.10;0.10;;;19.40;88.90;;;;;;4984722;28;19910;-79
2023/07/28 00:29:07;;;;;;;0.00;0.00;;;19.30;89.00;;;;;;4985038;28;20045;-78
2023/07/28 00:31:33;;;;;;;0.00;0.00;;;19.30;89.30;;;;;;4984898;28;20027;-79
2023/07/28 00:34:00;;;;;;;0.00;0.00;;;19.30;89.90;;;;;;4983046;28;20321;-78
2023/07/28 00:36:25;;;;;;;0.20;0.15;;;19.30;89.90;;;;;;4984628;28;20113;-78
2023/07/28 00:38:51;;;;;;;0.23;0.20;;;19.30;89.60;;;;;;4985051;28;20030;-78
2023/07/28 00:41:17;;;;;;;0.00;0.00;;;19.30;89.70;;;;;;4984392;28;20038;-78
2023/07/28 00:43:42;;;;;;;0.20;0.20;;;19.30;89.90;;;;;;4983334;28;20030;-78
2023/07/28 00:46:10;;;;;;;0.13;0.07;;;19.20;90.00;;;;;;4985398;28;20077;-78
2023/07/28 00:48:35;;;;;;;0.10;0.10;;;19.30;89.80;;;;;;4978247;28;20034;-78
2023/07/28 00:51:01;;;;;;;0.00;0.00;;;19.40;89.70;;;;;;4983137;28;20026;-78
2023/07/28 00:53:28;;;;;;;0.07;0.07;;;19.50;89.10;;;;;;4984216;28;20062;-78
2023/07/28 00:55:55;;;;;;;0.00;0.00;;;19.60;89.00;;;;;;4983932;28;20030;-78
2023/07/28 00:58:21;;;;;;;0.10;0.10;;;19.70;88.10;;;;;;4983907;28;20038;-78
2023/07/28 01:00:47;;;;;;;0.10;0.10;;;19.80;87.50;;;;;;4984506;28;20030;-78
2023/07/28 01:03:14;;;;;;;0.00;0.00;;;19.80;87.30;;;;;;4984573;28;20030;-78
2023/07/28 01:06:15;;;;;;;0.00;0.00;;;19.80;87.40;;;;;;4984195;28;20026;-79
2023/07/28 01:08:56;;;;;;;0.00;0.00;;;19.80;86.70;;;;;;4975166;28;20070;-79
2023/07/28 01:11:22;;;;;;;0.20;0.20;;;19.80;86.80;;;;;;4979927;28;20122;-79
2023/07/28 01:13:47;;;;;;;0.00;0.00;;;19.90;86.40;;;;;;4982908;28;20039;-79
2023/07/28 01:16:14;;;;;;;0.13;0.13;;;19.90;85.80;;;;;;4982287;28;20030;-78
2023/07/28 01:18:39;;;;;;;0.25;0.25;;;19.90;86.00;;;;;;4984343;28;20018;-78
2023/07/28 01:21:09;;;;;;;0.00;0.00;;;19.80;86.30;;;;;;4984164;28;20061;-78
2023/07/28 01:24:00;;;;;;;0.35;0.35;;;19.60;87.80;;;;;;4983720;28;20034;-79
2023/07/28 01:26:35;;;;;;;0.20;0.20;;;19.50;88.50;;;;;;4983835;28;20058;-79
2023/07/28 01:29:01;;;;;;;0.00;0.00;;;19.10;90.10;;;;;;4983353;28;20018;-78
2023/07/28 01:31:27;;;;;;;0.08;0.08;;;19.00;90.40;;;;;;4983675;28;20026;-79
2023/07/28 01:33:53;;;;;;;0.00;0.00;;;19.00;90.40;;;;;;4982719;28;20053;-78
2023/07/28 01:36:19;;;;;;;0.20;0.20;;;19.10;90.10;;;;;;4982563;28;20145;-78
2023/07/28 01:38:44;;;;;;;0.00;0.00;;;19.00;90.20;;;;;;4982713;28;20078;-78
2023/07/28 01:41:10;;;;;;;0.53;0.53;;;19.00;90.00;;;;;;4983031;28;20027;-79
2023/07/28 01:43:36;;;;;;;0.03;0.03;;;19.00;89.90;;;;;;4983588;28;20041;-78
2023/07/28 01:46:01;;;;;;;0.10;0.10;;;19.00;89.50;;;;;;4983048;28;20077;-78
2023/07/28 01:48:27;;;;;;;0.00;0.00;;;19.10;89.30;;;;;;4983274;28;20100;-78
2023/07/28 01:50:53;;;;;;;0.17;0.17;;;19.10;89.40;;;;;;4981773;28;20030;-78
2023/07/28 01:53:18;;;;;;;0.00;0.00;;;19.10;89.10;;;;;;4983056;28;20156;-78
2023/07/28 01:55:44;;;;;;;0.30;0.30;;;19.20;88.70;;;;;;4983077;28;20387;-78
2023/07/28 01:58:10;;;;;;;0.00;0.00;;;19.10;89.20;;;;;;4982112;28;20651;-78
2023/07/28 02:00:35;;;;;;;0.00;0.00;;;19.00;89.70;;;;;;4982308;28;20030;-79
2023/07/28 02:03:04;;;;;;;0.00;0.00;;;18.90;89.70;;;;;;4981278;28;20030;-79
2023/07/28 02:05:30;;;;;;;0.05;0.05;;;18.80;90.10;;;;;;4982820;28;20772;-79
2023/07/28 02:07:57;;;;;;;0.17;0.17;;;18.60;90.40;;;;;;4982454;28;20105;-79
2023/07/28 02:10:23;;;;;;;0.45;0.38;;;18.60;90.50;;;;;;4980831;28;20750;-78
2023/07/28 02:12:51;;;;;;;0.00;0.00;;;18.50;90.60;;;;;;4982455;28;20022;-79
2023/07/28 02:15:17;;;;;;;0.10;0.10;;;18.40;91.10;;;;;;4982698;28;20045;-79
2023/07/28 02:17:42;;;;;;;0.40;0.40;;;18.40;91.20;;;;;;4982580;28;20022;-79
2023/07/28 02:20:12;;;;;;;0.10;0.10;;;18.30;91.30;;;;;;4982218;28;20305;-79
2023/07/28 02:22:39;;;;;;;0.10;0.10;;;18.30;91.40;;;;;;4983005;28;20029;-79
2023/07/28 02:25:05;;;;;;;0.20;0.20;;;18.40;91.10;;;;;;4982222;28;20038;-78
2023/07/28 02:27:30;;;;;;;0.47;0.47;;;18.40;91.20;;;;;;4981262;28;20078;-79
2023/07/28 02:29:56;;;;;;;0.00;0.00;;;18.50;90.80;;;;;;4981757;28;20176;-79
2023/07/28 02:32:22;;;;;;;0.00;0.00;;;18.50;90.90;;;;;;4982879;28;20559;-79
2023/07/28 02:34:48;;;;;;;0.00;0.00;;;18.70;90.40;;;;;;4982133;28;20046;-79
2023/07/28 02:37:15;;;;;;;0.00;0.00;;;19.00;89.40;;;;;;4982288;28;20775;-78
2023/07/28 02:39:41;;;;;;;0.00;0.00;;;19.00;89.80;;;;;;4982078;28;20033;-78
2023/07/28 02:42:07;;;;;;;0.00;0.00;;;18.90;89.70;;;;;;4982697;28;20026;-78
2023/07/28 02:44:33;;;;;;;0.00;0.00;;;18.80;89.80;;;;;;4983288;28;20435;-79
2023/07/28 02:46:58;;;;;;;0.00;0.00;;;18.90;89.90;;;;;;4983241;28;20031;-78
2023/07/28 02:49:24;;;;;;;0.00;0.00;;;18.80;90.00;;;;;;4983162;28;20533;-79
2023/07/28 02:51:50;;;;;;;0.00;0.00;;;18.70;90.10;;;;;;4982627;28;20581;-79
2023/07/28 02:54:15;;;;;;;0.10;0.10;;;18.70;90.20;;;;;;4983084;28;20043;-79
2023/07/28 02:56:41;;;;;;;0.00;0.00;;;18.50;90.50;;;;;;4981257;28;20044;-79
2023/07/28 02:59:07;;;;;;;0.20;0.20;;;18.50;90.60;;;;;;4981941;28;20027;-79
2023/07/28 03:01:36;;;;;;;0.13;0.13;;;18.40;90.70;;;;;;4988253;28;20787;-79
2023/07/28 03:04:02;;;;;;;0.10;0.10;;;18.40;90.80;;;;;;4990114;28;20546;-79
2023/07/28 03:06:28;;;;;;;0.00;0.00;;;18.40;90.90;;;;;;4983282;28;20101;-78
2023/07/28 03:08:54;;;;;;;0.00;0.00;;;18.60;90.50;;;;;;4983275;28;20145;-79
2023/07/28 03:11:20;;;;;;;0.00;0.00;;;18.60;90.60;;;;;;4982847;28;20030;-78
2023/07/28 03:13:46;;;;;;;0.00;0.00;;;18.50;90.50;;;;;;4982563;28;20039;-78
2023/07/28 03:16:12;;;;;;;1.00;0.83;;;18.50;90.60;;;;;;4982555;28;20026;-78
2023/07/28 03:18:37;;;;;;;0.10;0.10;;;18.60;90.60;;;;;;4983100;28;20684;-78
2023/07/28 03:21:04;;;;;;;0.43;0.40;;;18.60;90.60;;;;;;4982470;28;20545;-78
2023/07/28 03:23:29;;;;;;;0.00;0.00;;;18.50;90.60;;;;;;4983154;28;20478;-78
2023/07/28 03:25:55;;;;;;;0.00;0.00;;;18.40;90.90;;;;;;4980935;28;20038;-79
2023/07/28 03:28:21;;;;;;;0.00;0.00;;;18.40;91.00;;;;;;4982812;28;20027;-80
2023/07/28 03:30:46;;;;;;;0.10;0.10;;;18.50;90.80;;;;;;4982404;28;20169;-79
2023/07/28 03:33:12;;;;;;;0.00;0.00;;;18.40;90.90;;;;;;4982109;28;20015;-79
2023/07/28 03:35:38;;;;;;;0.00;0.00;;;18.50;91.00;;;;;;4980790;28;20033;-79
2023/07/28 03:38:03;;;;;;;0.00;0.00;;;18.40;90.90;;;;;;4982829;28;20517;-79
2023/07/28 03:40:29;;;;;;;0.00;0.00;;;18.40;91.10;;;;;;4984793;28;20029;-79
2023/07/28 03:42:55;;;;;;;0.93;0.20;;;18.20;91.60;;;;;;4986428;28;20098;-78
2023/07/28 03:45:21;;;;;;;0.00;0.00;;;18.20;91.60;;;;;;4986276;28;20011;-78
2023/07/28 03:47:46;;;;;;;0.00;0.00;;;18.10;91.80;;;;;;4987917;28;20030;-78
2023/07/28 03:50:12;;;;;;;0.10;0.10;;;18.10;91.80;;;;;;4986523;28;20054;-78
2023/07/28 03:52:38;;;;;;;0.00;0.00;;;18.00;91.90;;;;;;4986307;28;20556;-78
2023/07/28 03:55:04;;;;;;;0.00;0.00;;;18.00;92.10;;;;;;4975923;28;20042;-78
2023/07/28 03:57:29;;;;;;;0.00;0.00;;;18.00;92.00;;;;;;4985872;28;20027;-78
2023/07/28 03:59:55;;;;;;;0.03;0.03;;;18.00;92.00;;;;;;4996296;28;20036;-78
2023/07/28 04:02:21;;;;;;;0.00;0.00;;;17.90;92.00;;;;;;4986015;28;20034;-78
2023/07/28 04:04:47;;;;;;;0.00;0.00;;;17.90;92.10;;;;;;4986022;28;20975;-78
2023/07/28 04:07:12;;;;;;;0.00;0.00;;;17.80;92.30;;;;;;4986075;28;20409;-78
2023/07/28 04:09:38;;;;;;;0.00;0.00;;;17.70;92.70;;;;;;4986169;28;20040;-79
2023/07/28 04:12:04;;;;;;;0.10;0.10;;;17.70;92.90;;;;;;4985670;28;20027;-79
2023/07/28 04:14:30;;;;;;;0.30;0.30;;;17.90;92.90;;;;;;4985936;28;20046;-80
2023/07/28 04:16:55;;;;;;;0.10;0.10;;;18.10;92.40;;;;;;4986066;28;20297;-79
2023/07/28 04:19:21;;;;;;;0.17;0.17;;;18.00;92.20;;;;;;4986647;28;20077;-79
2023/07/28 04:21:47;;;;;;;0.20;0.20;;;18.00;92.10;;;;;;4974759;28;20565;-79
2023/07/28 04:24:12;;;;;;;0.00;0.00;;;17.90;92.30;;;;;;4977334;28;20026;-79
2023/07/28 04:26:38;;;;;;;0.20;0.20;;;17.90;92.40;;;;;;4981004;28;20701;-78
2023/07/28 04:29:04;;;;;;;0.10;0.10;;;17.80;92.70;;;;;;4982441;28;20693;-78
2023/07/28 04:31:29;;;;;;;0.03;0.03;;;18.00;92.30;;;;;;4986118;28;20034;-77
2023/07/28 04:33:55;;;;;;;0.00;0.00;;;18.00;92.40;;;;;;4985572;28;20038;-78
2023/07/28 04:36:21;;;;;;;0.03;0.03;;;17.80;92.70;;;;;;4985199;28;20030;-78
2023/07/28 04:38:46;;;;;;;0.00;0.00;;;17.80;92.80;;;;;;4985149;28;20031;-79
2023/07/28 04:41:12;;;;;;;0.33;0.33;;;17.80;92.90;;;;;;4984971;28;20084;-78
2023/07/28 04:43:38;;;;;;;0.00;0.00;;;17.70;92.90;;;;;;4985110;28;20034;-77
2023/07/28 04:46:03;;;;;;;0.57;0.57;;;17.90;92.60;;;;;;4984347;28;20030;-78
2023/07/28 04:48:29;;;;;;;0.00;0.00;;;17.90;92.50;;;;;;4988539;28;20465;-78
2023/07/28 04:50:55;;;;;;;0.00;0.00;;;17.80;92.60;;;;;;4996131;28;20806;-78
2023/07/28 04:53:20;;;;;;;0.00;0.00;;;17.80;92.80;;;;;;4987025;28;20038;-78
2023/07/28 04:55:46;;;;;;;0.10;0.10;;;17.90;92.70;;;;;;4985325;28;20026;-78
2023/07/28 04:58:12;;;;;;;0.00;0.00;;;18.00;92.50;;;;;;4982829;28;20026;-78
2023/07/28 05:00:37;;;;;;;0.20;0.20;;;18.20;91.90;;;;;;4982862;28;20503;-78
2023/07/28 05:03:03;;;;;;;0.17;0.17;;;18.30;91.60;;;;;;4986054;28;20030;-78
2023/07/28 05:05:29;;;;;;;0.00;0.00;;;18.10;92.10;;;;;;4984447;28;20042;-79
2023/07/28 05:07:55;;;;;;;5.07;1.15;;;18.10;92.30;;;;;;4983877;28;20049;-77
2023/07/28 05:10:21;;;;;;;0.00;0.00;;;18.10;92.20;;;;;;4984122;28;20026;-78
2023/07/28 05:12:47;;;;;;;0.00;0.00;;;18.10;92.10;;;;;;4984147;28;20097;-77
2023/07/28 05:15:15;;;;;;;0.03;0.03;;;18.80;91.00;;;;;;4984610;28;20541;-78
2023/07/28 05:17:40;;;;;;;0.55;0.32;;;20.40;85.60;;;;;;4984680;28;20108;-78
2023/07/28 05:20:06;;;;;;;0.00;0.00;;;21.40;79.70;;;;;;4983437;28;20042;-79
2023/07/28 05:22:32;;;;;;;0.00;0.00;;;22.30;76.70;;;;;;4984678;28;20104;-78
2023/07/28 05:24:58;;;;;;;0.00;0.00;;;22.80;74.30;;;;;;4991943;28;20129;-79
2023/07/28 05:27:24;;;;;;;0.00;0.00;;;22.80;73.50;;;;;;4982983;28;20518;-79
2023/07/28 05:29:50;;;;;;;0.00;0.00;;;22.60;74.20;;;;;;4983831;28;20862;-79
2023/07/28 05:32:16;;;;;;;0.00;0.00;;;22.80;74.30;;;;;;4983355;28;20216;-78
2023/07/28 05:34:43;;;;;;;0.10;0.10;;;23.60;72.30;;;;;;4993919;28;20512;-79
2023/07/28 05:37:08;;;;;;;0.00;0.00;;;24.40;70.00;;;;;;4981853;28;20449;-79
2023/07/28 05:39:34;;;;;;;0.00;0.00;;;24.90;67.40;;;;;;4983628;28;20022;-79
2023/07/28 05:42:00;;;;;;;0.00;0.00;;;25.00;66.80;;;;;;4981877;28;20030;-79
2023/07/28 05:44:25;;;;;;;0.00;0.00;;;24.40;68.60;;;;;;4983521;28;20045;-80
2023/07/28 05:46:51;;;;;;;0.00;0.00;;;23.00;72.40;;;;;;4982188;28;20037;-80
2023/07/28 05:49:17;;;;;;;0.00;0.00;;;23.10;73.70;;;;;;4982886;28;20488;-79
2023/07/28 05:51:42;;;;;;;0.00;0.00;;;24.20;70.20;;;;;;4983834;28;20183;-80
2023/07/28 05:54:08;;;;;;;0.20;0.20;;;25.20;68.30;;;;;;4981555;28;20073;-80
2023/07/28 05:56:34;;;;;;;0.10;0.10;;;23.70;70.60;;;;;;4979168;28;20387;-79
2023/07/28 05:59:00;;;;;;;;;;;22.70;73.90;;;;;;4986475;28;20026;-80
2023/07/28 06:01:27;;;;;;;0.80;0.32;;;22.20;75.90;;;;;;4974475;28;19968;-80
2023/07/28 06:03:55;;;;;;;0.00;0.00;;;21.90;77.80;;;;;;4981331;28;20472;-79
2023/07/28 06:06:21;;;;;;;0.03;0.03;;;21.40;79.10;;;;;;4980918;28;20033;-79
2023/07/28 06:08:47;;;;;;;0.00;0.00;;;21.40;79.40;;;;;;4979309;28;20054;-78
2023/07/28 06:11:13;;;;;;;0.00;0.00;;;21.10;80.30;;;;;;4980502;28;20089;-80
2023/07/28 06:13:38;;;;;;;0.10;0.10;;;21.30;80.50;;;;;;4980753;28;20034;-79
2023/07/28 06:16:04;;;;;;;0.10;0.10;;;22.70;77.30;;;;;;4980761;28;20402;-79
2023/07/28 06:18:30;;;;;;;0.20;0.20;;;22.80;75.30;;;;;;4980990;28;20108;-79
2023/07/28 06:20:56;;;;;;;0.10;0.10;;;23.40;74.20;;;;;;4982139;28;20054;-79
2023/07/28 06:23:21;;;;;;;0.07;0.07;;;24.30;71.70;;;;;;4982370;28;20034;-80
2023/07/28 06:25:47;;;;;;;0.00;0.00;;;24.20;70.30;;;;;;4979893;28;20034;-79
2023/07/28 06:28:13;;;;;;;0.50;0.23;;;23.00;73.90;;;;;;4982887;28;20050;-79
2023/07/28 06:30:39;;;;;;;0.00;0.00;;;22.10;77.60;;;;;;4976315;28;20405;-79
2023/07/28 06:33:06;;;;;;;0.00;0.00;;;21.50;79.90;;;;;;4974599;28;20137;-79
2023/07/28 06:35:32;;;;;;;0.00;0.00;;;21.20;81.40;;;;;;4981806;28;20037;-80
2023/07/28 06:37:59;;;;;;;0.10;0.10;;;21.00;83.30;;;;;;4982271;28;20041;-80
2023/07/28 06:40:24;;;;;;;0.00;0.00;;;21.00;81.90;;;;;;4980721;28;20050;-79
2023/07/28 06:42:51;;;;;;;0.83;0.77;;;21.00;82.80;;;;;;4981866;28;20034;-78
2023/07/28 06:45:17;;;;;;;0.00;0.00;;;21.30;83.20;;;;;;4978599;28;20330;-78
2023/07/28 06:47:42;;;;;;;0.00;0.00;;;21.60;81.40;;;;;;4980134;28;20650;-79
2023/07/28 06:50:10;;;;;;;0.00;0.00;;;21.70;80.30;;;;;;4980580;28;20447;-79
2023/07/28 06:52:36;;;;;;;0.00;0.00;;;21.50;81.30;;;;;;4981558;28;20060;-79
2023/07/28 06:55:02;;;;;;;0.00;0.00;;;21.60;81.50;;;;;;4981016;28;20049;-79
2023/07/28 06:57:27;;;;;;;0.00;0.00;;;21.70;81.50;;;;;;4980320;28;20038;-79
2023/07/28 06:59:53;;;;;;;0.00;0.00;;;21.60;80.50;;;;;;4978803;28;20038;-79
2023/07/28 07:02:19;;;;;;;0.00;0.00;;;21.80;80.40;;;;;;4976777;28;20026;-78
2023/07/28 07:04:44;;;;;;;0.43;0.30;;;21.90;79.80;;;;;;4977982;28;20038;-79
2023/07/28 07:07:10;;;;;;;0.00;0.00;;;22.10;77.90;;;;;;4982300;28;20026;-79
2023/07/28 07:09:36;;;;;;;0.00;0.00;;;22.20;78.30;;;;;;4982503;28;20037;-78
2023/07/28 07:12:02;;;;;;;0.00;0.00;;;22.30;77.50;;;;;;4981695;28;20827;-77
2023/07/28 07:14:28;;;;;;;0.00;0.00;;;22.60;76.50;;;;;;4984537;28;20089;-79
2023/07/28 07:16:54;;;;;;;0.20;0.20;;;22.80;76.00;;;;;;4983789;28;20128;-81
2023/07/28 07:19:19;;;;;;;0.00;0.00;;;22.70;76.20;;;;;;4986009;28;20105;-80
2023/07/28 07:21:45;;;;;;;0.00;0.00;;;22.20;78.00;;;;;;4984042;28;20045;-82
2023/07/28 07:24:13;;;;;;;0.00;0.00;;;21.90;78.70;;;;;;4986866;28;20747;-83
2023/07/28 07:26:40;;;;;;;0.10;0.10;;;21.70;79.40;;;;;;4985343;28;20022;-83
2023/07/28 07:29:08;;;;;;;0.03;0.03;;;21.80;78.90;;;;;;4985551;28;20034;-82
2023/07/28 07:31:33;;;;;;;0.00;0.00;;;22.10;79.00;;;;;;4978463;28;20529;-81
2023/07/28 07:33:59;;;;;;;0.00;0.00;;;23.00;75.90;;;;;;4981044;28;20034;-80
2023/07/28 07:36:25;;;;;;;0.68;0.25;;;23.20;73.50;;;;;;4983978;28;20125;-82
2023/07/28 07:38:51;;;;;;;0.00;0.00;;;24.30;70.90;;;;;;4975448;28;20064;-82
2023/07/28 07:41:19;;;;;;;0.33;0.20;;;24.60;69.60;;;;;;4985730;28;20478;-82
2023/07/28 07:43:46;;;;;;;0.17;0.17;;;24.00;70.30;;;;;;4985588;28;20061;-80
2023/07/28 07:46:12;;;;;;;0.30;0.20;;;24.20;72.00;;;;;;4981897;28;20026;-81
2023/07/28 07:48:38;;;;;;;0.00;0.00;;;24.10;70.80;;;;;;4984342;28;20413;-84
2023/07/28 07:51:04;;;;;;;0.00;0.00;;;24.10;70.70;;;;;;4985860;28;20019;-82
2023/07/28 07:53:29;;;;;;;0.00;0.00;;;24.40;70.60;;;;;;4983105;28;20049;-80
2023/07/28 07:55:55;;;;;;;0.00;0.00;;;23.60;72.60;;;;;;4984150;28;20034;-83
2023/07/28 07:58:21;;;;;;;0.00;0.00;;;23.40;73.80;;;;;;4984276;28;20852;-82
2023/07/28 08:00:46;;;;;;;0.00;0.00;;;23.60;72.40;;;;;;4986010;28;20753;-83
2023/07/28 08:03:12;;;;;;;0.10;0.10;;;23.10;73.60;;;;;;4985509;28;20769;-85
2023/07/28 08:05:38;;;;;;;0.00;0.00;;;23.10;75.30;;;;;;4983611;28;20501;-82
2023/07/28 08:08:06;;;;;;;1.13;0.33;;;23.40;74.50;;;;;;4985863;28;20030;-83
2023/07/28 08:10:33;;;;;;;0.10;0.10;;;23.00;74.20;;;;;;4985625;28;20140;-84
2023/07/28 08:12:59;;;;;;;0.00;0.00;;;22.90;74.20;;;;;;4985949;28;20022;-81
2023/07/28 08:15:25;;;;;;;0.05;0.05;;;22.70;75.00;;;;;;4985557;28;20053;-82
2023/07/28 08:17:52;;;;;;;0.00;0.00;;;22.60;75.00;;;;;;4984546;28;20096;-82
2023/07/28 08:20:17;;;;;;;0.03;0.03;;;23.10;74.70;;;;;;4982288;28;20050;-81
2023/07/28 08:22:43;;;;;;;0.00;0.00;;;23.70;72.90;;;;;;4989187;28;20050;-83
2023/07/28 08:25:09;;;;;;;0.00;0.00;;;25.60;69.10;;;;;;4981612;28;20738;-79
2023/07/28 08:27:35;;;;;;;0.00;0.00;;;26.90;65.20;;;;;;4984153;28;20042;-81
2023/07/28 08:30:01;;;;;;;0.00;0.00;;;26.10;65.60;;;;;;4979648;28;20288;-81
2023/07/28 08:32:27;;;;;;;0.00;0.00;;;25.30;66.00;;;;;;4984578;28;20102;-80
2023/07/28 08:34:53;;;;;;;0.10;0.10;;;25.10;67.20;;;;;;4987876;28;20046;-83
2023/07/28 08:37:19;;;;;;;0.20;0.20;;;25.60;66.20;;;;;;4986556;28;20034;-83
2023/07/28 08:39:45;;;;;;;0.00;0.00;;;26.30;64.40;;;;;;4987239;28;20092;-81
2023/07/28 08:42:10;;;;;;;0.00;0.00;;;25.60;65.40;;;;;;4987713;28;20402;-79
2023/07/28 08:44:36;;;;;;;0.20;0.20;;;25.20;66.70;;;;;;4980551;28;20026;-80
2023/07/28 08:47:06;;;;;;;0.00;0.00;;;24.90;66.70;;;;;;4991108;28;20261;-79
2023/07/28 08:49:35;;;;;;;0.00;0.00;;;24.30;67.90;;;;;;4987005;28;20527;-82
2023/07/28 08:52:01;;;;;;;1.65;0.25;;;23.90;71.00;;;;;;4976552;28;20058;-81
2023/07/28 08:54:27;;;;;;;;;;;23.70;70.80;;;;;;4990810;28;20030;-80
2023/07/28 08:56:53;;;;;;;0.00;0.00;;;23.70;70.60;;;;;;4983901;28;20494;-81
2023/07/28 08:59:27;;;;;;;0.28;0.28;;;23.90;71.20;;;;;;4983343;28;20037;-80
2023/07/28 09:01:54;;;;;;;0.00;0.00;;;24.40;69.50;;;;;;4977206;28;20030;-81
2023/07/28 09:04:20;;;;;;;0.57;0.57;;;24.70;69.30;;;;;;4981457;28;20797;-81
2023/07/28 09:06:47;;;;;;;;;;;24.60;68.10;;;;;;4983993;28;20040;-80
2023/07/28 09:09:14;;;;;;;0.00;0.00;;;24.40;67.80;;;;;;4979858;28;19914;-81
2023/07/28 09:11:48;;;;;;;0.05;0.03;;;25.30;66.80;;;;;;4980933;28;20034;-81
2023/07/28 09:14:16;;;;;;;0.10;0.10;;;25.50;65.60;;;;;;4973536;28;20038;-81
2023/07/28 09:16:42;;;;;;;0.00;0.00;;;27.50;63.80;;;;;;4984964;28;20038;-83
2023/07/28 09:19:09;;;;;;;0.10;0.10;;;32.80;52.70;;;;;;4983101;28;20105;-81
2023/07/28 09:21:36;;;;;;;0.00;0.00;;;34.60;48.30;;;;;;4980456;28;20431;-83
2023/07/28 09:24:06;;;;;;;0.00;0.00;;;32.10;49.90;;;;;;4983992;28;20847;-81
2023/07/28 09:26:45;;;;;;;0.20;0.20;;;33.90;49.20;;;;;;4987208;28;20088;-80
2023/07/28 09:29:18;;;;;;;0.00;0.00;;;34.60;45.40;;;;;;4984913;28;20026;-80
2023/07/28 09:31:46;;;;;;;0.00;0.00;;;31.60;48.20;;;;;;4983714;28;20030;-80
2023/07/28 09:34:13;;;;;;;0.00;0.00;;;30.40;54.00;;;;;;4990783;28;20034;-84
2023/07/28 09:36:39;;;;;;;0.32;0.10;;;29.80;53.70;;;;;;4983932;28;20621;-79
2023/07/28 09:39:08;;;;;;;;;;;28.20;56.40;;;;;;4988592;28;20068;-80
2023/07/28 09:41:38;;;;;;;0.20;0.13;;;27.40;58.20;;;;;;4983183;28;20032;-80
2023/07/28 09:44:05;;;;;;;0.00;0.00;;;27.90;58.50;;;;;;4982698;28;20014;-81
2023/07/28 09:46:35;;;;;;;0.00;0.00;;;28.00;57.20;;;;;;4979560;28;20619;-82
2023/07/28 09:49:05;;;;;;;0.52;0.43;;;28.90;57.40;;;;;;4977467;28;20033;-78
2023/07/28 09:51:35;;;;;;;0.00;0.00;;;29.80;52.00;;;;;;4982347;28;20077;-79
2023/07/28 09:54:12;;;;;;;0.00;0.00;;;28.40;54.60;;;;;;4983428;28;20087;-83
2023/07/28 09:56:38;;;;;;;0.00;0.00;;;28.10;56.60;;;;;;4980891;28;20030;-80
2023/07/28 09:59:11;;;;;;;0.00;0.00;;;27.90;56.00;;;;;;4984869;28;20092;-82
2023/07/28 10:01:38;;;;;;;0.00;0.00;;;28.50;56.60;;;;;;4983461;28;20023;-79
2023/07/28 10:04:05;;;;;;;0.00;0.00;;;29.10;55.80;;;;;;4983470;28;20029;-79
2023/07/28 10:06:31;;;;;;;;;;;30.00;54.30;;;;;;4982701;28;20034;-81
2023/07/28 10:08:57;;;;;;;0.00;0.00;;;32.60;50.40;;;;;;4973996;28;19957;-78
2023/07/28 10:11:23;;;;;;;0.00;0.00;;;34.20;47.60;;;;;;4973522;28;20078;-79
2023/07/28 10:13:50;;;;;;;;;;;35.30;44.70;;;;;;4973267;28;20049;-77
2023/07/28 10:16:17;;;;;;;0.00;0.00;;;35.00;44.70;;;;;;4978900;28;19913;-79
2023/07/28 10:18:53;;;;;;;0.15;0.15;;;35.10;44.10;;;;;;4984844;28;20041;-81
2023/07/28 10:21:19;;;;;;;0.05;0.05;;;34.60;46.60;;;;;;4983016;28;20065;-80
2023/07/28 10:23:53;;;;;;;0.13;0.13;;;35.20;45.30;;;;;;4984255;28;20045;-78
2023/07/28 10:26:31;;;;;;;0.05;0.05;;;34.20;45.60;;;;;;4988685;28;20050;-80
2023/07/28 10:29:08;;;;;;;0.00;0.00;;;34.60;44.70;;;;;;4986558;28;20063;-79
2023/07/28 10:31:36;;;;;;;0.05;0.05;;;33.20;46.50;;;;;;4983093;28;20030;-80
2023/07/28 10:34:03;;;;;;;0.08;0.08;;;32.20;47.00;;;;;;4989627;28;20042;-80
2023/07/28 10:36:29;;;;;;;0.00;0.00;;;30.00;48.80;;;;;;4991459;28;20037;-79
2023/07/28 10:39:17;;;;;;;0.00;0.00;;;30.10;50.50;;;;;;4988139;28;20030;-83
2023/07/28 10:42:05;;;;;;;0.00;0.00;;;29.70;51.70;;;;;;4991070;28;20029;-79
2023/07/28 10:44:31;;;;;;;0.00;0.00;;;29.70;51.60;;;;;;4988805;28;20117;-82
2023/07/28 10:46:57;;;;;;;0.00;0.00;;;30.10;50.80;;;;;;4990974;28;20896;-81
2023/07/28 10:49:26;;;;;;;0.00;0.00;;;29.90;50.70;;;;;;4987550;28;20027;-82
2023/07/28 10:51:52;;;;;;;0.00;0.00;;;30.70;50.10;;;;;;4990577;28;20058;-80
2023/07/28 10:54:19;;;;;;;0.10;0.10;;;30.90;50.50;;;;;;4992134;28;20034;-79
2023/07/28 10:56:47;;;;;;;0.00;0.00;;;31.10;48.90;;;;;;4990007;28;20074;-84
2023/07/28 10:59:13;;;;;;;0.08;0.08;;;30.80;50.10;;;;;;4987140;28;20026;-80
2023/07/28 11:01:40;;;;;;;0.05;0.05;;;30.00;52.50;;;;;;4988272;28;20033;-83
2023/07/28 11:04:08;;;;;;;0.00;0.00;;;29.10;53.10;;;;;;4988629;28;20046;-81
2023/07/28 11:06:34;;;;;;;0.00;0.00;;;29.80;52.70;;;;;;4987366;28;20069;-80
2023/07/28 11:09:00;;;;;;;0.00;0.00;;;30.10;54.00;;;;;;4986896;28;20054;-80
2023/07/28 11:11:26;;;;;;;0.00;0.00;;;30.00;51.70;;;;;;4993723;28;20030;-80
2023/07/28 11:13:52;;;;;;;0.00;0.00;;;30.40;51.00;;;;;;4985788;28;20042;-82
2023/07/28 11:16:19;;;;;;;0.00;0.00;;;30.10;50.60;;;;;;4985984;28;20057;-86
2023/07/28 11:18:44;;;;;;;0.00;0.00;;;30.70;52.00;;;;;;4985507;28;20217;-81
2023/07/28 11:21:11;;;;;;;0.00;0.00;;;30.60;50.30;;;;;;4987430;28;20510;-82
2023/07/28 11:23:37;;;;;;;0.00;0.00;;;30.60;51.00;;;;;;4986097;28;20050;-80
2023/07/28 11:26:05;;;;;;;;;;;30.20;52.60;;;;;;4986991;28;20022;-81
2023/07/28 11:28:31;;;;;;;0.10;0.10;;;29.70;54.20;;;;;;4982981;28;19909;-81
2023/07/28 11:30:58;;;;;;;0.00;0.00;;;29.10;53.50;;;;;;4984867;28;20057;-83
2023/07/28 11:33:24;;;;;;;0.00;0.00;;;28.20;53.40;;;;;;4988508;28;20512;-81
2023/07/28 11:35:50;;;;;;;0.00;0.00;;;27.90;54.70;;;;;;4984792;28;20034;-82
2023/07/28 11:38:16;;;;;;;0.00;0.00;;;28.30;55.50;;;;;;4985561;28;20541;-80
2023/07/28 11:40:42;;;;;;;;;;;28.60;55.40;;;;;;4979967;28;20390;-87
2023/07/28 11:43:08;;;;;;;0.17;0.17;;;28.90;53.60;;;;;;4982961;28;19964;-79
2023/07/28 11:45:33;;;;;;;0.00;0.00;;;28.50;54.60;;;;;;4989035;28;20046;-83
2023/07/28 11:48:05;;;;;;;0.00;0.00;;;28.50;57.30;;;;;;4985345;28;20041;-81
2023/07/28 11:50:39;;;;;;;0.00;0.00;;;28.60;56.00;;;;;;4981145;28;20121;-84
2023/07/28 11:53:08;;;;;;;0.25;0.25;;;28.90;55.10;;;;;;4986901;28;20038;-82
2023/07/28 11:55:36;;;;;;;0.55;0.30;;;29.00;55.40;;;;;;4980171;28;20078;-86
2023/07/28 11:58:04;;;;;;;0.10;0.10;;;29.00;56.20;;;;;;4982950;28;20057;-82
2023/07/28 12:00:37;;;;;;;0.00;0.00;;;28.70;57.20;;;;;;4988735;28;20562;-82
2023/07/28 12:03:05;;;;;;;0.00;0.00;;;28.40;56.00;;;;;;4990282;28;20030;-84
2023/07/28 12:05:33;;;;;;;0.10;0.10;;;28.40;56.80;;;;;;4992107;28;20022;-79
2023/07/28 12:07:59;;;;;;;0.00;0.00;;;28.50;57.10;;;;;;4993476;28;20097;-82
2023/07/28 12:10:24;;;;;;;0.00;0.00;;;28.20;59.10;;;;;;4991516;28;20244;-83
2023/07/28 12:12:50;;;;;;;0.00;0.00;;;28.10;58.30;;;;;;4994209;28;20488;-78
2023/07/28 12:15:29;;;;;;;0.00;0.00;;;27.70;54.40;;;;;;4983562;28;20145;-79
2023/07/28 12:18:01;;;;;;;0.00;0.00;;;27.60;55.30;;;;;;4991831;28;20038;-80
2023/07/28 12:20:34;;;;;;;0.00;0.00;;;27.80;57.50;;;;;;4989251;28;20037;-82
2023/07/28 12:22:59;;;;;;;0.00;0.00;;;27.70;57.70;;;;;;4993983;28;20026;-85
2023/07/28 12:25:25;;;;;;;0.10;0.10;;;27.60;57.70;;;;;;4992854;28;20036;-85
2023/07/28 12:27:51;;;;;;;0.00;0.00;;;27.60;57.00;;;;;;4979909;28;20033;-81
2023/07/28 12:30:17;;;;;;;0.00;0.00;;;27.60;59.80;;;;;;4985620;28;20065;-80
2023/07/28 12:32:43;;;;;;;0.00;0.00;;;27.40;58.80;;;;;;4984032;28;20134;-77
2023/07/28 12:35:09;;;;;;;0.10;0.10;;;27.20;59.60;;;;;;4982716;28;20062;-77
2023/07/28 12:37:35;;;;;;;0.00;0.00;;;27.30;60.40;;;;;;4982865;28;20955;-82
2023/07/28 12:40:01;;;;;;;0.38;0.38;;;27.60;59.30;;;;;;4987918;28;20048;-80
2023/07/28 12:42:27;;;;;;;0.08;0.08;;;27.80;60.70;;;;;;4983285;28;20027;-78
2023/07/28 12:44:52;;;;;;;0.23;0.07;;;27.70;57.20;;;;;;4989393;28;20033;-79
2023/07/28 12:47:18;;;;;;;0.00;0.00;;;27.40;58.20;;;;;;4992145;28;20364;-77